sensor_id;sensor_type;location;lat;lon;timestamp;pressure;altitude;pressure_sealevel;temperature;humidity
18988;BME280;5494;51.796;10.952;2023-05-18T00:02:23;100089.91;;;6.89;90.07
18988;BME280;5494;51.796;10.952;2023-05-18T00:04:52;100097.78;;;6.83;90.67
18988;BME280;5494;51.796;10.952;2023-05-18T00:07:22;100094.34;;;6.82;90.97
18988;BME280;5494;51.796;10.952;2023-05-18T00:09:50;100090.25;;;6.70;91.51
18988;BME280;5494;51.796;10.952;2023-05-18T00:12:18;100096.44;;;6.60;92.37
18988;BME280;5494;51.796;10.952;2023-05-18T00:14:46;100102.53;;;6.56;93.91
18988;BME280;5494;51.796;10.952;2023-05-18T00:17:14;100103.44;;;6.52;94.81
18988;BME280;5494;51.796;10.952;2023-05-18T00:19:42;100107.00;;;6.44;95.68
18988;BME280;5494;51.796;10.952;2023-05-18T00:22:12;100108.88;;;6.36;97.16
18988;BME280;5494;51.796;10.952;2023-05-18T00:24:45;100099.38;;;6.38;98.21
18988;BME280;5494;51.796;10.952;2023-05-18T00:27:14;100108.03;;;6.35;98.43
18988;BME280;5494;51.796;10.952;2023-05-18T00:29:42;100105.38;;;6.40;98.69
18988;BME280;5494;51.796;10.952;2023-05-18T00:32:11;100107.28;;;6.27;98.93
18988;BME280;5494;51.796;10.952;2023-05-18T00:34:39;100103.09;;;6.21;99.98
18988;BME280;5494;51.796;10.952;2023-05-18T00:37:07;100109.03;;;6.26;100.00
18988;BME280;5494;51.796;10.952;2023-05-18T00:39:35;100102.25;;;6.19;99.80
18988;BME280;5494;51.796;10.952;2023-05-18T00:42:05;100110.91;;;6.15;99.86
18988;BME280;5494;51.796;10.952;2023-05-18T00:44:33;100110.91;;;6.15;100.00
18988;BME280;5494;51.796;10.952;2023-05-18T00:47:01;100107.50;;;6.12;100.00
18988;BME280;5494;51.796;10.952;2023-05-18T00:49:30;100110.13;;;6.09;100.00
18988;BME280;5494;51.796;10.952;2023-05-18T00:51:58;100106.69;;;6.10;100.00
18988;BME280;5494;51.796;10.952;2023-05-18T00:54:26;100109.38;;;6.02;100.00
18988;BME280;5494;51.796;10.952;2023-05-18T00:56:54;100112.06;;;5.95;100.00
18988;BME280;5494;51.796;10.952;2023-05-18T00:59:24;100106.84;;;5.98;100.00
18988;BME280;5494;51.796;10.952;2023-05-18T01:01:52;100112.09;;;5.91;100.00
18988;BME280;5494;51.796;10.952;2023-05-18T01:04:20;100113.00;;;5.86;100.00
18988;BME280;5494;51.796;10.952;2023-05-18T01:06:50;100114.72;;;5.87;100.00
18988;BME280;5494;51.796;10.952;2023-05-18T01:09:23;100116.41;;;5.89;100.00
18988;BME280;5494;51.796;10.952;2023-05-18T01:12:02;100115.56;;;5.90;100.00
18988;BME280;5494;51.796;10.952;2023-05-18T01:14:40;100117.44;;;5.76;100.00
18988;BME280;5494;51.796;10.952;2023-05-18T01:17:24;100120.09;;;5.70;100.00
18988;BME280;5494;51.796;10.952;2023-05-18T01:20:11;100122.59;;;5.75;100.00
18988;BME280;5494;51.796;10.952;2023-05-18T01:23:05;100121.72;;;5.76;100.00
18988;BME280;5494;51.796;10.952;2023-05-18T01:25:46;100126.94;;;5.73;100.00
18988;BME280;5494;51.796;10.952;2023-05-18T01:28:24;100121.03;;;5.65;100.00
18988;BME280;5494;51.796;10.952;2023-05-18T01:30:53;100133.06;;;5.64;100.00
18988;BME280;5494;51.796;10.952;2023-05-18T01:33:22;100128.84;;;5.59;100.00
18988;BME280;5494;51.796;10.952;2023-05-18T01:35:51;100132.28;;;5.58;100.00
18988;BME280;5494;51.796;10.952;2023-05-18T01:38:22;100128.78;;;5.62;100.00
18988;BME280;5494;51.796;10.952;2023-05-18T01:40:59;100137.34;;;5.65;100.00
18988;BME280;5494;51.796;10.952;2023-05-18T01:43:33;100134.78;;;5.64;100.00
18988;BME280;5494;51.796;10.952;2023-05-18T01:46:16;100135.66;;;5.61;100.00
18988;BME280;5494;51.796;10.952;2023-05-18T01:48:55;100131.44;;;5.57;100.00
18988;BME280;5494;51.796;10.952;2023-05-18T01:51:30;100138.38;;;5.52;100.00
18988;BME280;5494;51.796;10.952;2023-05-18T01:54:05;100134.19;;;5.42;100.00
18988;BME280;5494;51.796;10.952;2023-05-18T01:56:37;100133.25;;;5.47;100.00
18988;BME280;5494;51.796;10.952;2023-05-18T01:59:08;100138.63;;;5.31;100.00
18988;BME280;5494;51.796;10.952;2023-05-18T02:01:37;100126.53;;;5.33;100.00
18988;BME280;5494;51.796;10.952;2023-05-18T02:04:08;100132.63;;;5.27;100.00
18988;BME280;5494;51.796;10.952;2023-05-18T02:06:36;100138.59;;;5.32;100.00
18988;BME280;5494;51.796;10.952;2023-05-18T02:09:06;100148.09;;;5.27;100.00
18988;BME280;5494;51.796;10.952;2023-05-18T02:11:34;100137.72;;;5.33;100.00
18988;BME280;5494;51.796;10.952;2023-05-18T02:14:03;100136.91;;;5.27;100.00
18988;BME280;5494;51.796;10.952;2023-05-18T02:16:35;100135.22;;;5.26;100.00
18988;BME280;5494;51.796;10.952;2023-05-18T02:19:03;100136.13;;;5.23;100.00
18988;BME280;5494;51.796;10.952;2023-05-18T02:21:31;100147.34;;;5.18;100.00
18988;BME280;5494;51.796;10.952;2023-05-18T02:24:02;100135.28;;;5.21;100.00
18988;BME280;5494;51.796;10.952;2023-05-18T02:26:30;100133.56;;;5.20;100.00
18988;BME280;5494;51.796;10.952;2023-05-18T02:28:58;100138.69;;;5.22;100.00
18988;BME280;5494;51.796;10.952;2023-05-18T02:31:28;100142.13;;;5.22;100.00
18988;BME280;5494;51.796;10.952;2023-05-18T02:33:58;100140.50;;;5.15;100.00
18988;BME280;5494;51.796;10.952;2023-05-18T02:36:26;100143.06;;;5.15;100.00
18988;BME280;5494;51.796;10.952;2023-05-18T02:38:54;100135.34;;;5.12;100.00
18988;BME280;5494;51.796;10.952;2023-05-18T02:41:22;100141.38;;;5.12;100.00
18988;BME280;5494;51.796;10.952;2023-05-18T02:43:51;100139.69;;;5.07;100.00
18988;BME280;5494;51.796;10.952;2023-05-18T02:46:19;100144.00;;;5.09;100.00
18988;BME280;5494;51.796;10.952;2023-05-18T02:48:48;100147.50;;;5.02;100.00
18988;BME280;5494;51.796;10.952;2023-05-18T02:51:17;100141.47;;;5.02;100.00
18988;BME280;5494;51.796;10.952;2023-05-18T02:53:46;100143.13;;;5.07;100.00
18988;BME280;5494;51.796;10.952;2023-05-18T02:56:15;100144.91;;;5.01;100.00
18988;BME280;5494;51.796;10.952;2023-05-18T02:59:00;100142.34;;;5.04;100.00
18988;BME280;5494;51.796;10.952;2023-05-18T03:01:32;100142.34;;;5.04;100.00
18988;BME280;5494;51.796;10.952;2023-05-18T03:04:05;100142.34;;;5.04;100.00
18988;BME280;5494;51.796;10.952;2023-05-18T03:06:38;100136.41;;;4.94;100.00
18988;BME280;5494;51.796;10.952;2023-05-18T03:09:07;100144.19;;;4.88;100.00
18988;BME280;5494;51.796;10.952;2023-05-18T03:11:40;100145.00;;;4.92;100.00
18988;BME280;5494;51.796;10.952;2023-05-18T03:14:09;100142.47;;;4.87;100.00
18988;BME280;5494;51.796;10.952;2023-05-18T03:16:37;100143.28;;;4.92;100.00
18988;BME280;5494;51.796;10.952;2023-05-18T03:19:10;100145.91;;;4.86;100.00
18988;BME280;5494;51.796;10.952;2023-05-18T03:21:41;100146.78;;;4.87;100.00
18988;BME280;5494;51.796;10.952;2023-05-18T03:24:09;100140.75;;;4.89;100.00
18988;BME280;5494;51.796;10.952;2023-05-18T03:26:42;100142.34;;;4.99;100.00
18988;BME280;5494;51.796;10.952;2023-05-18T03:29:11;100139.75;;;5.04;100.00
18988;BME280;5494;51.796;10.952;2023-05-18T03:31:39;100146.63;;;5.02;100.00
18988;BME280;5494;51.796;10.952;2023-05-18T03:34:09;100134.56;;;5.05;100.00
18988;BME280;5494;51.796;10.952;2023-05-18T03:36:37;100131.91;;;5.16;100.00
18988;BME280;5494;51.796;10.952;2023-05-18T03:39:07;100141.28;;;5.20;100.00
18988;BME280;5494;51.796;10.952;2023-05-18T03:41:35;100133.50;;;5.26;100.00
18988;BME280;5494;51.796;10.952;2023-05-18T03:44:03;100136.69;;;5.48;100.00
18988;BME280;5494;51.796;10.952;2023-05-18T03:46:31;100136.69;;;5.49;100.00
18988;BME280;5494;51.796;10.952;2023-05-18T03:49:00;100134.81;;;5.61;100.00
18988;BME280;5494;51.796;10.952;2023-05-18T03:51:36;100139.84;;;5.71;100.00
18988;BME280;5494;51.796;10.952;2023-05-18T03:54:04;100141.34;;;5.93;100.00
18988;BME280;5494;51.796;10.952;2023-05-18T03:56:33;100140.31;;;6.05;100.00
18988;BME280;5494;51.796;10.952;2023-05-18T03:59:02;100142.63;;;6.23;100.00
18988;BME280;5494;51.796;10.952;2023-05-18T04:01:31;100145.75;;;6.45;100.00
18988;BME280;5494;51.796;10.952;2023-05-18T04:04:00;100142.06;;;6.61;100.00
18988;BME280;5494;51.796;10.952;2023-05-18T04:06:29;100144.16;;;6.90;100.00
18988;BME280;5494;51.796;10.952;2023-05-18T04:08:57;100141.84;;;7.23;100.00
18988;BME280;5494;51.796;10.952;2023-05-18T04:11:30;100142.97;;;7.54;97.57
18988;BME280;5494;51.796;10.952;2023-05-18T04:13:59;100138.13;;;7.80;93.55
18988;BME280;5494;51.796;10.952;2023-05-18T04:16:28;100146.28;;;8.02;91.36
18988;BME280;5494;51.796;10.952;2023-05-18T04:18:57;100142.28;;;8.27;88.68
18988;BME280;5494;51.796;10.952;2023-05-18T04:21:26;100148.22;;;8.69;85.91
18988;BME280;5494;51.796;10.952;2023-05-18T04:23:55;100144.06;;;8.98;82.00
18988;BME280;5494;51.796;10.952;2023-05-18T04:26:28;100139.72;;;9.31;79.90
18988;BME280;5494;51.796;10.952;2023-05-18T04:28:58;100143.84;;;9.69;76.33
18988;BME280;5494;51.796;10.952;2023-05-18T04:31:26;100146.56;;;10.24;70.83
18988;BME280;5494;51.796;10.952;2023-05-18T04:33:55;100142.22;;;10.53;67.24
18988;BME280;5494;51.796;10.952;2023-05-18T04:36:24;100149.59;;;10.65;64.93
18988;BME280;5494;51.796;10.952;2023-05-18T04:38:56;100148.88;;;10.88;64.46
18988;BME280;5494;51.796;10.952;2023-05-18T04:41:26;100147.97;;;11.14;62.88
18988;BME280;5494;51.796;10.952;2023-05-18T04:43:54;100145.09;;;11.48;61.39
18988;BME280;5494;51.796;10.952;2023-05-18T04:46:24;100145.91;;;11.48;59.46
18988;BME280;5494;51.796;10.952;2023-05-18T04:48:53;100146.47;;;11.33;59.51
18988;BME280;5494;51.796;10.952;2023-05-18T04:51:24;100145.97;;;11.47;58.45
18988;BME280;5494;51.796;10.952;2023-05-18T04:53:52;100148.63;;;11.45;58.00
18988;BME280;5494;51.796;10.952;2023-05-18T04:56:21;100154.31;;;11.31;59.22
18988;BME280;5494;51.796;10.952;2023-05-18T04:58:49;100156.22;;;11.51;57.40
18988;BME280;5494;51.796;10.952;2023-05-18T05:01:17;100154.53;;;11.50;57.01
18988;BME280;5494;51.796;10.952;2023-05-18T05:03:48;100154.31;;;11.31;58.54
18988;BME280;5494;51.796;10.952;2023-05-18T05:06:17;100156.75;;;11.36;58.64
18988;BME280;5494;51.796;10.952;2023-05-18T05:08:45;100159.31;;;11.37;58.34
18988;BME280;5494;51.796;10.952;2023-05-18T05:11:13;100166.75;;;11.23;58.82
18988;BME280;5494;51.796;10.952;2023-05-18T05:13:41;100167.97;;;11.38;58.79
18988;BME280;5494;51.796;10.952;2023-05-18T05:16:10;100168.47;;;11.72;56.55
18988;BME280;5494;51.796;10.952;2023-05-18T05:18:38;100166.34;;;11.83;55.52
18988;BME280;5494;51.796;10.952;2023-05-18T05:21:09;100165.88;;;12.19;55.19
18988;BME280;5494;51.796;10.952;2023-05-18T05:23:37;100167.47;;;12.67;53.28
18988;BME280;5494;51.796;10.952;2023-05-18T05:26:05;100168.41;;;12.44;52.65
18988;BME280;5494;51.796;10.952;2023-05-18T05:28:33;100173.22;;;12.31;53.92
18988;BME280;5494;51.796;10.952;2023-05-18T05:31:02;100164.41;;;12.57;53.29
18988;BME280;5494;51.796;10.952;2023-05-18T05:33:30;100151.75;;;13.32;51.44
18988;BME280;5494;51.796;10.952;2023-05-18T05:35:58;100164.63;;;14.32;47.75
18988;BME280;5494;51.796;10.952;2023-05-18T05:38:27;100162.75;;;14.16;47.57
18988;BME280;5494;51.796;10.952;2023-05-18T05:40:56;100164.25;;;14.41;45.69
18988;BME280;5494;51.796;10.952;2023-05-18T05:43:24;100167.69;;;14.23;46.39
18988;BME280;5494;51.796;10.952;2023-05-18T05:45:53;100161.09;;;14.87;45.33
18988;BME280;5494;51.796;10.952;2023-05-18T05:48:21;100160.50;;;15.34;44.20
18988;BME280;5494;51.796;10.952;2023-05-18T05:50:49;100165.22;;;14.74;44.96
18988;BME280;5494;51.796;10.952;2023-05-18T05:53:17;100165.66;;;14.84;44.02
18988;BME280;5494;51.796;10.952;2023-05-18T05:55:49;100162.34;;;15.32;43.09
18988;BME280;5494;51.796;10.952;2023-05-18T05:58:17;100163.25;;;16.45;40.71
18988;BME280;5494;51.796;10.952;2023-05-18T06:00:50;100159.31;;;17.00;40.11
18988;BME280;5494;51.796;10.952;2023-05-18T06:03:21;100162.81;;;16.22;40.50
18988;BME280;5494;51.796;10.952;2023-05-18T06:05:49;100159.44;;;15.55;42.04
18988;BME280;5494;51.796;10.952;2023-05-18T06:08:19;100157.13;;;15.82;41.74
18988;BME280;5494;51.796;10.952;2023-05-18T06:10:52;100162.06;;;16.35;41.17
18988;BME280;5494;51.796;10.952;2023-05-18T06:13:21;100152.44;;;17.27;38.85
18988;BME280;5494;51.796;10.952;2023-05-18T06:15:56;100162.66;;;17.76;38.42
18988;BME280;5494;51.796;10.952;2023-05-18T06:18:25;100156.63;;;18.43;36.63
18988;BME280;5494;51.796;10.952;2023-05-18T06:20:57;100167.72;;;17.93;36.62
18988;BME280;5494;51.796;10.952;2023-05-18T06:23:26;100158.13;;;18.47;37.08
18988;BME280;5494;51.796;10.952;2023-05-18T06:26:09;100159.63;;;18.51;35.82
18988;BME280;5494;51.796;10.952;2023-05-18T06:28:53;100158.50;;;18.41;36.83
18988;BME280;5494;51.796;10.952;2023-05-18T06:31:28;100164.66;;;17.56;37.62
18988;BME280;5494;51.796;10.952;2023-05-18T06:34:11;100169.81;;;17.00;39.17
18988;BME280;5494;51.796;10.952;2023-05-18T06:36:39;100161.75;;;15.77;40.50
18988;BME280;5494;51.796;10.952;2023-05-18T06:39:08;100170.88;;;14.29;44.16
18988;BME280;5494;51.796;10.952;2023-05-18T06:41:37;100164.28;;;14.20;45.06
18988;BME280;5494;51.796;10.952;2023-05-18T06:44:05;100172.88;;;14.24;44.93
18988;BME280;5494;51.796;10.952;2023-05-18T06:46:51;100164.47;;;14.72;45.13
18988;BME280;5494;51.796;10.952;2023-05-18T06:49:24;100167.97;;;15.07;44.34
18988;BME280;5494;51.796;10.952;2023-05-18T06:51:52;100167.72;;;15.29;43.85
18988;BME280;5494;51.796;10.952;2023-05-18T06:54:20;100173.91;;;15.11;43.54
18988;BME280;5494;51.796;10.952;2023-05-18T06:56:50;100168.41;;;16.47;41.21
18988;BME280;5494;51.796;10.952;2023-05-18T06:59:18;100173.47;;;16.03;41.35
18988;BME280;5494;51.796;10.952;2023-05-18T07:01:46;100182.16;;;15.20;43.76
18988;BME280;5494;51.796;10.952;2023-05-18T07:04:15;100179.41;;;14.87;44.81
18988;BME280;5494;51.796;10.952;2023-05-18T07:06:45;100181.84;;;14.37;46.31
18988;BME280;5494;51.796;10.952;2023-05-18T07:09:13;100184.38;;;15.11;44.94
18988;BME280;5494;51.796;10.952;2023-05-18T07:11:41;100176.34;;;15.65;43.43
18988;BME280;5494;51.796;10.952;2023-05-18T07:14:12;100180.19;;;16.55;41.52
18988;BME280;5494;51.796;10.952;2023-05-18T07:16:40;100179.47;;;16.99;41.17
18988;BME280;5494;51.796;10.952;2023-05-18T07:19:11;100178.69;;;15.54;43.05
18988;BME280;5494;51.796;10.952;2023-05-18T07:21:39;100180.41;;;15.71;43.30
18988;BME280;5494;51.796;10.952;2023-05-18T07:24:07;100174.03;;;15.92;43.15
18988;BME280;5494;51.796;10.952;2023-05-18T07:26:35;100179.59;;;16.82;40.83
18988;BME280;5494;51.796;10.952;2023-05-18T07:29:03;100176.53;;;16.89;41.15
18988;BME280;5494;51.796;10.952;2023-05-18T07:31:32;100170.09;;;17.09;40.40
18988;BME280;5494;51.796;10.952;2023-05-18T07:34:04;100182.81;;;16.40;41.73
18988;BME280;5494;51.796;10.952;2023-05-18T07:36:32;100186.22;;;15.09;44.10
18988;BME280;5494;51.796;10.952;2023-05-18T07:39:00;100183.25;;;15.84;43.52
18988;BME280;5494;51.796;10.952;2023-05-18T07:41:29;100186.94;;;16.60;43.58
18988;BME280;5494;51.796;10.952;2023-05-18T07:43:57;100188.81;;;16.89;42.09
18988;BME280;5494;51.796;10.952;2023-05-18T07:46:25;100184.16;;;16.94;41.05
18988;BME280;5494;51.796;10.952;2023-05-18T07:48:55;100189.09;;;15.56;43.03
18988;BME280;5494;51.796;10.952;2023-05-18T07:51:23;100184.34;;;15.80;43.75
18988;BME280;5494;51.796;10.952;2023-05-18T07:53:51;100179.94;;;16.44;42.32
18988;BME280;5494;51.796;10.952;2023-05-18T07:56:20;100185.00;;;15.33;43.53
18988;BME280;5494;51.796;10.952;2023-05-18T07:58:49;100190.78;;;15.40;44.50
18988;BME280;5494;51.796;10.952;2023-05-18T08:01:17;100185.91;;;15.66;43.77
18988;BME280;5494;51.796;10.952;2023-05-18T08:03:47;100188.25;;;15.55;43.65
18988;BME280;5494;51.796;10.952;2023-05-18T08:06:17;100184.94;;;16.18;43.79
18988;BME280;5494;51.796;10.952;2023-05-18T08:08:48;100196.00;;;15.05;45.10
18988;BME280;5494;51.796;10.952;2023-05-18T08:11:16;100190.59;;;14.55;47.55
18988;BME280;5494;51.796;10.952;2023-05-18T08:13:44;100194.31;;;15.38;45.38
18988;BME280;5494;51.796;10.952;2023-05-18T08:16:12;100186.09;;;15.96;44.58
18988;BME280;5494;51.796;10.952;2023-05-18T08:18:40;100183.25;;;16.64;43.01
18988;BME280;5494;51.796;10.952;2023-05-18T08:21:09;100183.84;;;17.14;42.28
18988;BME280;5494;51.796;10.952;2023-05-18T08:23:39;100179.47;;;17.43;41.50
18988;BME280;5494;51.796;10.952;2023-05-18T08:26:07;100193.13;;;16.90;41.66
18988;BME280;5494;51.796;10.952;2023-05-18T08:28:38;100194.53;;;15.17;46.84
18988;BME280;5494;51.796;10.952;2023-05-18T08:31:06;100192.38;;;16.09;44.65
18988;BME280;5494;51.796;10.952;2023-05-18T08:33:34;100188.22;;;16.21;43.07
18988;BME280;5494;51.796;10.952;2023-05-18T08:36:03;100189.50;;;16.45;44.09
18988;BME280;5494;51.796;10.952;2023-05-18T08:38:31;100183.44;;;14.94;47.96
18988;BME280;5494;51.796;10.952;2023-05-18T08:41:07;100190.03;;;15.20;47.60
18988;BME280;5494;51.796;10.952;2023-05-18T08:43:42;100172.69;;;15.85;45.07
18988;BME280;5494;51.796;10.952;2023-05-18T08:46:20;100188.19;;;16.05;45.02
18988;BME280;5494;51.796;10.952;2023-05-18T08:48:51;100182.03;;;15.73;45.51
18988;BME280;5494;51.796;10.952;2023-05-18T08:51:21;100179.81;;;15.99;45.07
18988;BME280;5494;51.796;10.952;2023-05-18T08:53:52;100191.72;;;15.56;45.35
18988;BME280;5494;51.796;10.952;2023-05-18T08:56:23;100183.19;;;14.82;47.54
18988;BME280;5494;51.796;10.952;2023-05-18T08:58:55;100179.44;;;15.39;47.42
18988;BME280;5494;51.796;10.952;2023-05-18T09:01:25;100178.81;;;16.48;45.89
18988;BME280;5494;51.796;10.952;2023-05-18T09:03:56;100182.31;;;15.85;44.85
18988;BME280;5494;51.796;10.952;2023-05-18T09:06:26;100183.28;;;15.66;45.67
18988;BME280;5494;51.796;10.952;2023-05-18T09:08:55;100177.63;;;14.71;47.10
18988;BME280;5494;51.796;10.952;2023-05-18T09:11:26;100180.56;;;14.08;49.78
18988;BME280;5494;51.796;10.952;2023-05-18T09:13:55;100172.28;;;14.36;49.97
18988;BME280;5494;51.796;10.952;2023-05-18T09:16:24;100174.19;;;14.14;49.78
18988;BME280;5494;51.796;10.952;2023-05-18T09:18:52;100172.81;;;13.68;52.89
18988;BME280;5494;51.796;10.952;2023-05-18T09:21:20;100173.13;;;13.99;51.61
18988;BME280;5494;51.796;10.952;2023-05-18T09:23:49;100165.88;;;14.96;49.67
18988;BME280;5494;51.796;10.952;2023-05-18T09:26:19;100162.06;;;15.71;46.70
18988;BME280;5494;51.796;10.952;2023-05-18T09:28:52;100158.06;;;16.91;44.85
18988;BME280;5494;51.796;10.952;2023-05-18T09:31:21;100165.94;;;16.12;44.95
18988;BME280;5494;51.796;10.952;2023-05-18T09:33:52;100161.50;;;15.82;46.15
18988;BME280;5494;51.796;10.952;2023-05-18T09:36:24;100169.34;;;15.66;47.25
18988;BME280;5494;51.796;10.952;2023-05-18T09:38:54;100170.63;;;14.71;51.22
18988;BME280;5494;51.796;10.952;2023-05-18T09:41:25;100161.13;;;15.05;49.95
18988;BME280;5494;51.796;10.952;2023-05-18T09:43:55;100157.63;;;15.21;50.28
18988;BME280;5494;51.796;10.952;2023-05-18T09:46:23;100155.84;;;15.39;49.49
18988;BME280;5494;51.796;10.952;2023-05-18T09:48:53;100156.41;;;15.79;48.53
18988;BME280;5494;51.796;10.952;2023-05-18T09:51:21;100155.69;;;15.59;49.15
18988;BME280;5494;51.796;10.952;2023-05-18T09:53:53;100162.06;;;16.04;47.96
18988;BME280;5494;51.796;10.952;2023-05-18T09:56:23;100171.13;;;14.96;49.86
18988;BME280;5494;51.796;10.952;2023-05-18T09:58:52;100166.44;;;14.67;50.30
18988;BME280;5494;51.796;10.952;2023-05-18T10:01:22;100168.88;;;14.53;49.77
18988;BME280;5494;51.796;10.952;2023-05-18T10:03:50;100162.56;;;15.45;48.33
18988;BME280;5494;51.796;10.952;2023-05-18T10:06:19;100150.31;;;17.04;45.12
18988;BME280;5494;51.796;10.952;2023-05-18T10:08:56;100160.22;;;16.69;44.45
18988;BME280;5494;51.796;10.952;2023-05-18T10:11:24;100152.47;;;17.55;41.89
18988;BME280;5494;51.796;10.952;2023-05-18T10:13:53;100144.50;;;17.85;41.09
18988;BME280;5494;51.796;10.952;2023-05-18T10:16:24;100158.13;;;17.78;42.40
18988;BME280;5494;51.796;10.952;2023-05-18T10:18:54;100148.50;;;16.74;44.38
18988;BME280;5494;51.796;10.952;2023-05-18T10:21:26;100154.44;;;16.78;44.62
18988;BME280;5494;51.796;10.952;2023-05-18T10:23:58;100138.16;;;17.31;42.65
18988;BME280;5494;51.796;10.952;2023-05-18T10:26:34;100140.91;;;16.70;41.98
18988;BME280;5494;51.796;10.952;2023-05-18T10:29:06;100137.69;;;17.39;41.10
18988;BME280;5494;51.796;10.952;2023-05-18T10:31:37;100132.78;;;16.27;44.41
18988;BME280;5494;51.796;10.952;2023-05-18T10:34:08;100136.91;;;16.47;44.49
18988;BME280;5494;51.796;10.952;2023-05-18T10:36:38;100139.44;;;16.33;42.76
18988;BME280;5494;51.796;10.952;2023-05-18T10:39:07;100138.50;;;16.81;41.75
18988;BME280;5494;51.796;10.952;2023-05-18T10:41:38;100132.91;;;17.01;41.10
18988;BME280;5494;51.796;10.952;2023-05-18T10:44:07;100136.41;;;15.93;43.98
18988;BME280;5494;51.796;10.952;2023-05-18T10:46:37;100130.22;;;16.57;41.93
18988;BME280;5494;51.796;10.952;2023-05-18T10:49:06;100126.84;;;17.01;41.79
18988;BME280;5494;51.796;10.952;2023-05-18T10:51:40;100133.28;;;17.25;40.86
18988;BME280;5494;51.796;10.952;2023-05-18T10:54:12;100126.88;;;16.85;42.29
18988;BME280;5494;51.796;10.952;2023-05-18T10:56:43;100118.06;;;16.25;44.88
18988;BME280;5494;51.796;10.952;2023-05-18T10:59:14;100120.81;;;15.74;45.92
18988;BME280;5494;51.796;10.952;2023-05-18T11:01:48;100132.91;;;15.27;46.86
18988;BME280;5494;51.796;10.952;2023-05-18T11:04:23;100121.66;;;14.73;47.76
18988;BME280;5494;51.796;10.952;2023-05-18T11:06:56;100125.50;;;14.66;48.66
18988;BME280;5494;51.796;10.952;2023-05-18T11:09:25;100120.16;;;14.86;47.70
18988;BME280;5494;51.796;10.952;2023-05-18T11:11:57;100122.66;;;15.40;46.47
18988;BME280;5494;51.796;10.952;2023-05-18T11:14:27;100115.56;;;15.74;45.12
18988;BME280;5494;51.796;10.952;2023-05-18T11:17:19;100122.13;;;16.14;45.33
18988;BME280;5494;51.796;10.952;2023-05-18T11:20:13;100124.53;;;14.86;46.44
18988;BME280;5494;51.796;10.952;2023-05-18T11:22:48;100123.72;;;14.49;47.02
18988;BME280;5494;51.796;10.952;2023-05-18T11:25:41;100114.22;;;14.66;47.04
18988;BME280;5494;51.796;10.952;2023-05-18T11:28:11;100122.56;;;14.55;46.80
18988;BME280;5494;51.796;10.952;2023-05-18T11:30:49;100110.41;;;14.88;45.47
18988;BME280;5494;51.796;10.952;2023-05-18T11:33:25;100110.41;;;14.88;46.27
18988;BME280;5494;51.796;10.952;2023-05-18T11:36:05;100120.56;;;14.60;46.65
18988;BME280;5494;51.796;10.952;2023-05-18T11:39:05;100118.78;;;14.61;45.78
18988;BME280;5494;51.796;10.952;2023-05-18T11:41:35;100109.50;;;14.17;47.27
18988;BME280;5494;51.796;10.952;2023-05-18T11:44:19;100110.88;;;14.45;48.31
18988;BME280;5494;51.796;10.952;2023-05-18T11:46:54;100115.75;;;13.96;47.57
18988;BME280;5494;51.796;10.952;2023-05-18T11:49:25;100108.47;;;13.84;48.56
18988;BME280;5494;51.796;10.952;2023-05-18T11:51:56;100103.22;;;13.84;47.21
18988;BME280;5494;51.796;10.952;2023-05-18T11:54:25;100093.00;;;14.53;46.90
18988;BME280;5494;51.796;10.952;2023-05-18T11:56:54;100093.63;;;15.43;45.48
18988;BME280;5494;51.796;10.952;2023-05-18T11:59:31;100095.84;;;15.67;44.98
18988;BME280;5494;51.796;10.952;2023-05-18T12:02:02;100093.56;;;15.44;45.36
18988;BME280;5494;51.796;10.952;2023-05-18T12:04:33;100097.56;;;14.84;46.25
18988;BME280;5494;51.796;10.952;2023-05-18T12:07:04;100098.63;;;14.27;48.33
18988;BME280;5494;51.796;10.952;2023-05-18T12:09:33;100093.47;;;14.06;50.02
18988;BME280;5494;51.796;10.952;2023-05-18T12:12:02;100102.53;;;13.99;48.14
18988;BME280;5494;51.796;10.952;2023-05-18T12:14:33;100106.50;;;13.89;47.05
18988;BME280;5494;51.796;10.952;2023-05-18T12:17:02;100100.22;;;13.93;47.65
18988;BME280;5494;51.796;10.952;2023-05-18T12:19:41;100098.06;;;14.20;46.65
18988;BME280;5494;51.796;10.952;2023-05-18T12:22:10;100105.75;;;14.42;45.66
18988;BME280;5494;51.796;10.952;2023-05-18T12:24:39;100100.81;;;14.36;45.42
18988;BME280;5494;51.796;10.952;2023-05-18T12:27:10;100097.22;;;14.19;48.52
18988;BME280;5494;51.796;10.952;2023-05-18T12:29:40;100103.44;;;14.17;48.56
18988;BME280;5494;51.796;10.952;2023-05-18T12:32:10;100093.16;;;14.67;46.26
18988;BME280;5494;51.796;10.952;2023-05-18T12:34:43;100097.28;;;14.73;45.65
18988;BME280;5494;51.796;10.952;2023-05-18T12:37:11;100092.34;;;14.84;45.72
18988;BME280;5494;51.796;10.952;2023-05-18T12:39:39;100096.56;;;15.21;44.81
18988;BME280;5494;51.796;10.952;2023-05-18T12:42:12;100091.94;;;15.09;44.15
18988;BME280;5494;51.796;10.952;2023-05-18T12:44:43;100088.72;;;15.54;44.62
18988;BME280;5494;51.796;10.952;2023-05-18T12:47:13;100096.13;;;15.46;44.35
18988;BME280;5494;51.796;10.952;2023-05-18T12:49:48;100091.56;;;14.99;44.52
18988;BME280;5494;51.796;10.952;2023-05-18T12:52:16;100088.41;;;14.58;46.74
18988;BME280;5494;51.796;10.952;2023-05-18T12:54:49;100084.09;;;14.57;45.45
18988;BME280;5494;51.796;10.952;2023-05-18T12:57:21;100089.97;;;14.79;45.54
18988;BME280;5494;51.796;10.952;2023-05-18T12:59:53;100078.75;;;15.10;44.89
18988;BME280;5494;51.796;10.952;2023-05-18T13:02:33;100076.91;;;15.45;44.02
18988;BME280;5494;51.796;10.952;2023-05-18T13:05:05;100078.44;;;15.33;44.49
18988;BME280;5494;51.796;10.952;2023-05-18T13:07:40;100072.69;;;15.10;44.63
18988;BME280;5494;51.796;10.952;2023-05-18T13:10:11;100074.81;;;15.19;45.45